Time;durP1;ratioP1;P1;durP2;ratioP2;P2;SDS_P1;SDS_P2;PMS_P1;PMS_P2;Temp;Humidity;BMP_temperature;BMP_pressure;BME280_temperature;BME280_humidity;BME280_pressure;Samples;Min_cycle;Max_cycle;Signal;HPM_P1;HPM_P2
2022/03/11 00:01:42;;;;;;;38.17;14.27;;;;;;;-148.23;100.00;61223.13;4955803;28;20026;-67
2022/03/11 00:04:08;;;;;;;39.47;12.70;;;;;;;-148.23;100.00;61223.13;4954634;28;20053;-67
2022/03/11 00:06:33;;;;;;;33.63;12.45;;;;;;;-148.23;100.00;61223.13;4956113;28;20034;-67
2022/03/11 00:08:58;;;;;;;30.23;11.30;;;;;;;-148.23;100.00;61223.13;4955666;28;20034;-67
2022/03/11 00:11:24;;;;;;;34.30;12.63;;;;;;;-148.23;100.00;61223.13;4953974;28;20030;-67
2022/03/11 00:13:49;;;;;;;40.92;11.93;;;;;;;-148.23;100.00;61223.13;4954404;28;20093;-67
2022/03/11 00:16:15;;;;;;;39.08;13.05;;;;;;;-148.23;100.00;61223.13;4936376;28;20197;-67
2022/03/11 00:18:40;;;;;;;44.03;14.23;;;;;;;-148.23;100.00;61223.13;4954432;28;20065;-67
2022/03/11 00:21:08;;;;;;;30.00;12.20;;;;;;;-148.23;100.00;61223.13;4951868;28;20493;-67
2022/03/11 00:23:33;;;;;;;33.83;11.23;;;;;;;-148.23;100.00;61223.13;4954107;28;20030;-67
2022/03/11 00:25:58;;;;;;;35.67;12.98;;;;;;;-148.23;100.00;61223.13;4956788;28;20023;-67
2022/03/11 00:28:23;;;;;;;40.90;14.43;;;;;;;-148.23;100.00;61223.13;4953523;28;20360;-67
2022/03/11 00:30:49;;;;;;;35.22;12.57;;;;;;;-148.23;100.00;61223.13;4959370;28;20035;-67
2022/03/11 00:33:14;;;;;;;40.90;13.55;;;;;;;-148.23;100.00;61223.13;4954342;28;20125;-67
2022/03/11 00:35:39;;;;;;;33.88;13.15;;;;;;;-148.23;100.00;61223.13;4952731;28;20172;-67
2022/03/11 00:38:05;;;;;;;37.03;13.75;;;;;;;-148.23;100.00;61223.13;4954703;28;20038;-67
2022/03/11 00:40:30;;;;;;;34.60;12.88;;;;;;;-148.23;100.00;61223.13;4934198;28;20062;-67
2022/03/11 00:42:55;;;;;;;42.78;13.63;;;;;;;-148.23;100.00;61223.13;4950933;28;20077;-67
2022/03/11 00:45:22;;;;;;;40.10;14.20;;;;;;;-148.23;100.00;61223.13;4975277;28;20046;-67
2022/03/11 00:47:47;;;;;;;36.70;13.57;;;;;;;-148.23;100.00;61223.13;4976106;28;20030;-67
2022/03/11 00:50:12;;;;;;;35.03;13.20;;;;;;;-148.23;100.00;61223.13;4978501;28;20081;-67
2022/03/11 00:52:40;;;;;;;39.38;13.30;;;;;;;-148.23;100.00;61223.13;4961955;28;20035;-67
2022/03/11 00:55:05;;;;;;;35.08;13.30;;;;;;;-148.23;100.00;61223.13;4960743;28;20035;-67
2022/03/11 00:57:31;;;;;;;32.38;11.95;;;;;;;-148.23;100.00;61223.13;4959902;28;20058;-67
2022/03/11 00:59:56;;;;;;;39.72;13.27;;;;;;;-148.23;100.00;61223.13;4963014;28;20043;-67
2022/03/11 01:02:21;;;;;;;33.80;12.85;;;;;;;-148.23;100.00;61223.13;4960584;28;20031;-67
2022/03/11 01:04:49;;;;;;;36.35;13.15;;;;;;;-148.23;100.00;61223.13;4960869;28;20539;-67
2022/03/11 01:07:15;;;;;;;40.05;12.23;;;;;;;-148.23;100.00;61223.13;4960482;28;20046;-67
2022/03/11 01:09:40;;;;;;;40.38;12.70;;;;;;;-148.23;100.00;61223.13;4960175;28;20030;-67
2022/03/11 01:12:06;;;;;;;37.78;13.73;;;;;;;-148.23;100.00;61223.13;4970806;28;20023;-67
2022/03/11 01:14:31;;;;;;;33.38;12.63;;;;;;;-148.23;100.00;61223.13;4961155;28;20023;-67
2022/03/11 01:16:56;;;;;;;34.22;12.93;;;;;;;-148.23;100.00;61223.13;4961698;28;20440;-67
2022/03/11 01:19:21;;;;;;;38.95;13.30;;;;;;;-148.23;100.00;61223.13;4955290;28;20046;-67
2022/03/11 01:21:47;;;;;;;40.40;13.10;;;;;;;-148.23;100.00;61223.13;4952740;28;20034;-67
2022/03/11 01:24:12;;;;;;;39.38;12.80;;;;;;;-148.23;100.00;61223.13;4959824;28;20474;-67
2022/03/11 01:26:37;;;;;;;38.33;13.55;;;;;;;-148.23;100.00;61223.13;4954535;28;20059;-67
2022/03/11 01:29:03;;;;;;;39.75;12.05;;;;;;;-148.23;100.00;61223.13;4951595;28;20022;-67
2022/03/11 01:31:28;;;;;;;33.90;12.85;;;;;;;-148.23;100.00;61223.13;4953512;28;20069;-67
2022/03/11 01:33:53;;;;;;;43.53;13.90;;;;;;;-148.23;100.00;61223.13;4952202;28;20373;-67
2022/03/11 01:36:20;;;;;;;39.60;12.55;;;;;;;-148.23;100.00;61223.13;4953543;28;20045;-67
2022/03/11 01:38:46;;;;;;;37.30;11.73;;;;;;;-148.23;100.00;61223.13;4954754;28;20419;-67
2022/03/11 01:41:11;;;;;;;44.58;14.18;;;;;;;-148.23;100.00;61223.13;4947231;28;20437;-67
2022/03/11 01:43:53;;;;;;;34.97;12.63;;;;;;;-148.23;100.00;61223.13;4954302;28;20027;-67
2022/03/11 01:46:18;;;;;;;49.22;15.10;;;;;;;-148.23;100.00;61223.13;4953689;28;20031;-67
2022/03/11 01:48:44;;;;;;;38.00;13.43;;;;;;;-148.23;100.00;61223.13;4956927;28;20042;-67
2022/03/11 01:51:09;;;;;;;37.13;12.88;;;;;;;-148.23;100.00;61223.13;4955667;28;20567;-67
2022/03/11 01:53:35;;;;;;;38.45;12.45;;;;;;;-148.23;100.00;61223.13;4953384;28;20100;-67
2022/03/11 01:56:01;;;;;;;36.90;14.10;;;;;;;-148.23;100.00;61223.13;4953713;28;20027;-67
2022/03/11 01:58:26;;;;;;;39.03;14.27;;;;;;;-148.23;100.00;61223.13;4956200;28;20142;-67
2022/03/11 02:00:51;;;;;;;37.53;13.60;;;;;;;-148.23;100.00;61223.13;4953857;28;20472;-67
2022/03/11 02:03:17;;;;;;;42.42;14.60;;;;;;;-148.23;100.00;61223.13;4953442;28;20115;-67
2022/03/11 02:05:43;;;;;;;38.47;13.60;;;;;;;-148.23;100.00;61223.13;4954981;28;20022;-67
2022/03/11 02:08:09;;;;;;;43.58;13.60;;;;;;;-148.23;100.00;61223.13;4972760;28;20478;-67
2022/03/11 02:10:34;;;;;;;40.10;13.95;;;;;;;-148.23;100.00;61223.13;4973318;28;20045;-67
2022/03/11 02:13:04;;;;;;;34.67;13.07;;;;;;;-148.23;100.00;61223.13;4956041;28;20026;-67
2022/03/11 02:15:29;;;;;;;35.88;13.65;;;;;;;-148.23;100.00;61223.13;4959892;28;20039;-67
2022/03/11 02:17:54;;;;;;;38.08;13.15;;;;;;;-148.23;100.00;61223.13;4958438;28;20030;-67
2022/03/11 02:20:20;;;;;;;40.38;13.77;;;;;;;-148.23;100.00;61223.13;4949960;28;20039;-67
2022/03/11 02:22:49;;;;;;;35.05;13.52;;;;;;;-148.23;100.00;61223.13;4953433;28;20284;-67
2022/03/11 02:25:14;;;;;;;36.60;12.38;;;;;;;-148.23;100.00;61223.13;4969222;28;20031;-67
2022/03/11 02:27:42;;;;;;;36.03;12.70;;;;;;;-148.23;100.00;61223.13;4953742;28;20465;-67
2022/03/11 02:30:18;;;;;;;40.00;13.95;;;;;;;-148.23;100.00;61223.13;4952201;28;20030;-67
2022/03/11 02:32:44;;;;;;;37.30;13.45;;;;;;;-148.23;100.00;61223.13;4956221;28;20833;-67
2022/03/11 02:35:10;;;;;;;39.33;13.57;;;;;;;-148.23;100.00;61223.13;4950980;28;20038;-67
2022/03/11 02:37:35;;;;;;;39.65;13.93;;;;;;;-148.23;100.00;61223.13;4954003;28;20787;-67
2022/03/11 02:40:01;;;;;;;33.63;13.50;;;;;;;-148.23;100.00;61223.13;4950872;28;20072;-67
2022/03/11 02:42:26;;;;;;;37.90;12.80;;;;;;;-148.23;100.00;61223.13;4951653;28;20548;-67
2022/03/11 02:44:51;;;;;;;37.03;13.73;;;;;;;-148.23;100.00;61223.13;4961301;28;20034;-67
2022/03/11 02:47:17;;;;;;;35.03;13.82;;;;;;;-148.23;100.00;61223.13;4964942;28;20081;-67
2022/03/11 02:49:42;;;;;;;37.42;12.95;;;;;;;-148.23;100.00;61223.13;4965456;28;20479;-67
2022/03/11 02:52:07;;;;;;;35.25;13.00;;;;;;;-148.23;100.00;61223.13;4960876;28;20473;-67
2022/03/11 02:54:34;;;;;;;35.30;12.50;;;;;;;-148.23;100.00;61223.13;4961813;28;20731;-67
2022/03/11 02:56:59;;;;;;;38.55;13.73;;;;;;;-148.23;100.00;61223.13;4967547;28;20034;-67
2022/03/11 02:59:24;;;;;;;38.80;13.38;;;;;;;-148.23;100.00;61223.13;4956898;28;20037;-67
2022/03/11 03:01:50;;;;;;;30.10;12.68;;;;;;;-148.23;100.00;61223.13;4960667;28;20635;-67
2022/03/11 03:04:15;;;;;;;33.80;12.98;;;;;;;-148.23;100.00;61223.13;4962980;28;20031;-67
2022/03/11 03:06:40;;;;;;;31.25;11.40;;;;;;;-148.23;100.00;61223.13;4965155;28;20178;-67
2022/03/11 03:09:05;;;;;;;36.88;12.50;;;;;;;-148.23;100.00;61223.13;4969407;28;20508;-67
2022/03/11 03:11:31;;;;;;;30.77;12.52;;;;;;;-148.23;100.00;61223.13;4959876;28;20034;-67
2022/03/11 03:13:56;;;;;;;32.45;11.88;;;;;;;-148.23;100.00;61223.13;4962666;28;20038;-67
2022/03/11 03:16:21;;;;;;;31.85;12.90;;;;;;;-148.23;100.00;61223.13;4963463;28;20142;-67
2022/03/11 03:18:47;;;;;;;31.42;12.65;;;;;;;-148.23;100.00;61223.13;4964210;28;20034;-67
2022/03/11 03:21:13;;;;;;;32.30;12.25;;;;;;;-148.23;100.00;61223.13;4961551;28;20038;-67
2022/03/11 03:23:38;;;;;;;30.23;11.27;;;;;;;-148.23;100.00;61223.13;4963149;28;20531;-67
2022/03/11 03:26:03;;;;;;;37.15;11.88;;;;;;;-148.23;100.00;61223.13;4962908;28;20046;-67
2022/03/11 03:28:28;;;;;;;30.17;12.13;;;;;;;-148.23;100.00;61223.13;4958737;28;20796;-67
2022/03/11 03:30:54;;;;;;;33.03;11.63;;;;;;;-148.23;100.00;61223.13;4955192;28;20034;-67
2022/03/11 03:33:19;;;;;;;30.67;13.05;;;;;;;-148.23;100.00;61223.13;4955083;28;20042;-67
2022/03/11 03:35:44;;;;;;;36.78;12.10;;;;;;;-148.23;100.00;61223.13;4956375;28;20129;-67
2022/03/11 03:38:10;;;;;;;37.03;12.93;;;;;;;-148.23;100.00;61223.13;4952891;28;20076;-67
2022/03/11 03:40:35;;;;;;;34.65;11.63;;;;;;;-148.23;100.00;61223.13;4953242;28;20126;-67
2022/03/11 03:43:01;;;;;;;31.85;12.05;;;;;;;-148.23;100.00;61223.13;4954112;28;20468;-67
2022/03/11 03:45:27;;;;;;;34.17;11.27;;;;;;;-148.23;100.00;61223.13;4959378;28;20018;-67
2022/03/11 03:47:52;;;;;;;31.13;10.07;;;;;;;-148.23;100.00;61223.13;4957568;28;20448;-67
2022/03/11 03:50:17;;;;;;;28.20;10.40;;;;;;;-148.23;100.00;61223.13;4955103;28;20507;-67
2022/03/11 03:52:43;;;;;;;27.42;11.80;;;;;;;-148.23;100.00;61223.13;4970833;28;20133;-67
2022/03/11 03:55:08;;;;;;;28.60;12.48;;;;;;;-148.23;100.00;61223.13;4954363;28;20049;-67
2022/03/11 03:57:34;;;;;;;32.83;11.98;;;;;;;-148.23;100.00;61223.13;4941277;28;20497;-67
2022/03/11 03:59:59;;;;;;;26.45;10.95;;;;;;;-148.23;100.00;61223.13;4956457;28;20145;-67
2022/03/11 04:02:24;;;;;;;28.67;10.50;;;;;;;-148.23;100.00;61223.13;4953148;28;20038;-67
2022/03/11 04:04:50;;;;;;;29.38;11.48;;;;;;;-148.23;100.00;61223.13;4955140;28;20109;-67
2022/03/11 04:07:15;;;;;;;23.98;10.68;;;;;;;-148.23;100.00;61223.13;4955338;28;20027;-67
2022/03/11 04:09:41;;;;;;;30.50;10.45;;;;;;;-148.23;100.00;61223.13;4957393;28;20066;-67
2022/03/11 04:12:06;;;;;;;33.92;13.63;;;;;;;-148.23;100.00;61223.13;4951481;28;20125;-67
2022/03/11 04:14:32;;;;;;;30.13;12.90;;;;;;;-148.23;100.00;61223.13;4956116;28;20503;-67
2022/03/11 04:16:57;;;;;;;28.92;10.45;;;;;;;-148.23;100.00;61223.13;4954252;28;20026;-67
2022/03/11 04:19:22;;;;;;;29.67;12.00;;;;;;;-148.23;100.00;61223.13;4955814;28;20033;-67
2022/03/11 04:21:48;;;;;;;31.00;12.00;;;;;;;-148.23;100.00;61223.13;4953685;28;20532;-67
2022/03/11 04:24:14;;;;;;;29.63;11.60;;;;;;;-148.23;100.00;61223.13;4938580;28;20205;-67
2022/03/11 04:26:41;;;;;;;28.15;10.23;;;;;;;-148.23;100.00;61223.13;4958621;28;20030;-67
2022/03/11 04:29:07;;;;;;;35.75;12.52;;;;;;;-148.23;100.00;61223.13;4967445;28;20050;-67
2022/03/11 04:31:32;;;;;;;30.45;11.85;;;;;;;-148.23;100.00;61223.13;4970099;28;20469;-67
2022/03/11 04:33:57;;;;;;;27.15;10.75;;;;;;;-148.23;100.00;61223.13;4969291;28;20038;-67
2022/03/11 04:36:23;;;;;;;31.38;12.13;;;;;;;-148.23;100.00;61223.13;4957489;28;20023;-67
2022/03/11 04:38:48;;;;;;;33.67;12.23;;;;;;;-148.23;100.00;61223.13;4958600;28;20422;-67
2022/03/11 04:41:13;;;;;;;36.00;13.27;;;;;;;-148.23;100.00;61223.13;4971505;28;20370;-67
2022/03/11 04:43:39;;;;;;;29.60;12.38;;;;;;;-148.23;100.00;61223.13;4955504;28;20050;-67
2022/03/11 04:46:04;;;;;;;30.45;11.75;;;;;;;-148.23;100.00;61223.13;4958023;28;20445;-67
2022/03/11 04:48:31;;;;;;;29.20;11.75;;;;;;;-148.23;100.00;61223.13;4959654;28;20038;-68
2022/03/11 04:50:56;;;;;;;24.92;10.80;;;;;;;-148.23;100.00;61223.13;4956365;28;20035;-67
2022/03/11 04:53:21;;;;;;;24.33;9.57;;;;;;;-148.23;100.00;61223.13;4959463;28;20023;-67
2022/03/11 04:55:47;;;;;;;25.02;11.32;;;;;;;-148.23;100.00;61223.13;4961078;28;20030;-67
2022/03/11 04:58:12;;;;;;;31.70;10.90;;;;;;;-148.23;100.00;61223.13;4971489;28;20046;-67
2022/03/11 05:00:38;;;;;;;39.85;16.02;;;;;;;-148.23;100.00;61223.13;4960096;28;20486;-67
2022/03/11 05:03:03;;;;;;;32.47;13.63;;;;;;;-148.23;100.00;61223.13;4958505;28;20034;-67
2022/03/11 05:05:30;;;;;;;31.67;13.38;;;;;;;-148.23;100.00;61223.13;4961533;28;20122;-67
2022/03/11 05:07:55;;;;;;;26.85;12.00;;;;;;;-148.23;100.00;61223.13;4960891;28;20044;-67
2022/03/11 05:10:21;;;;;;;36.05;14.50;;;;;;;-148.23;100.00;61223.13;4959407;28;20482;-67
2022/03/11 05:12:46;;;;;;;33.15;13.77;;;;;;;-148.23;100.00;61223.13;4959563;28;20034;-68
2022/03/11 05:15:11;;;;;;;27.88;11.80;;;;;;;-148.23;100.00;61223.13;4958737;28;20520;-67
2022/03/11 05:17:37;;;;;;;32.65;14.05;;;;;;;-148.23;100.00;61223.13;4959658;28;20046;-67
2022/03/11 05:20:04;;;;;;;35.53;13.98;;;;;;;-148.23;100.00;61223.13;4954173;28;20070;-67
2022/03/11 05:22:29;;;;;;;30.67;11.90;;;;;;;-148.23;100.00;61223.13;4952919;28;20078;-67
2022/03/11 05:24:55;;;;;;;33.70;13.35;;;;;;;-148.23;100.00;61223.13;4954134;28;20026;-67
2022/03/11 05:27:20;;;;;;;35.78;16.40;;;;;;;-148.23;100.00;61223.13;4958340;28;20042;-67
2022/03/11 05:29:45;;;;;;;26.42;9.15;;;;;;;-148.23;100.00;61223.13;4956999;28;20133;-67
2022/03/11 05:32:13;;;;;;;33.80;9.85;;;;;;;-148.23;100.00;61223.13;4953123;28;20039;-68
2022/03/11 05:34:39;;;;;;;39.30;13.43;;;;;;;-148.23;100.00;61223.13;4973613;28;20568;-67
2022/03/11 05:37:05;;;;;;;24.02;10.95;;;;;;;-148.23;100.00;61223.13;4971694;28;20508;-67
2022/03/11 05:39:31;;;;;;;31.23;12.90;;;;;;;-148.23;100.00;61223.13;4951909;28;20063;-67
2022/03/11 05:41:57;;;;;;;33.67;14.45;;;;;;;-148.23;100.00;61223.13;4954172;28;20107;-67
2022/03/11 05:44:23;;;;;;;27.45;12.13;;;;;;;-148.23;100.00;61223.13;4951666;28;20031;-67
2022/03/11 05:46:48;;;;;;;31.85;13.10;;;;;;;-148.23;100.00;61223.13;4955179;28;20062;-68
2022/03/11 05:49:14;;;;;;;38.13;14.98;;;;;;;-148.23;100.00;61223.13;4952668;28;20030;-67
2022/03/11 05:51:39;;;;;;;29.70;12.73;;;;;;;-148.23;100.00;61223.13;4956339;28;20564;-67
2022/03/11 05:54:05;;;;;;;35.60;15.68;;;;;;;-148.23;100.00;61223.13;4955115;28;20026;-67
2022/03/11 05:56:31;;;;;;;35.45;13.93;;;;;;;-148.23;100.00;61223.13;4955110;28;20037;-67
2022/03/11 05:58:56;;;;;;;35.05;17.33;;;;;;;-148.23;100.00;61223.13;4957993;28;20026;-67
2022/03/11 06:01:22;;;;;;;32.67;13.50;;;;;;;-148.23;100.00;61223.13;4956529;28;20296;-67
2022/03/11 06:03:47;;;;;;;41.72;17.67;;;;;;;-148.23;100.00;61223.13;4968334;28;20031;-67
2022/03/11 06:06:16;;;;;;;35.13;14.27;;;;;;;-148.23;100.00;61223.13;4954340;28;20089;-67
2022/03/11 06:08:42;;;;;;;35.50;15.25;;;;;;;-148.23;100.00;61223.13;4960649;28;20038;-67
2022/03/11 06:11:09;;;;;;;27.77;10.98;;;;;;;-148.23;100.00;61223.13;4959432;28;20580;-67
2022/03/11 06:13:35;;;;;;;33.45;15.50;;;;;;;-148.23;100.00;61223.13;4955847;28;20041;-67
2022/03/11 06:16:01;;;;;;;36.25;13.32;;;;;;;-148.23;100.00;61223.13;4954053;28;20027;-67
2022/03/11 06:18:26;;;;;;;36.22;13.88;;;;;;;-148.23;100.00;61223.13;4957550;28;20031;-67
2022/03/11 06:20:51;;;;;;;28.60;10.75;;;;;;;-148.23;100.00;61223.13;4961043;28;21035;-66
2022/03/11 06:23:17;;;;;;;36.58;15.10;;;;;;;-148.23;100.00;61223.13;4967660;28;20911;-67
2022/03/11 06:25:42;;;;;;;36.53;16.17;;;;;;;-148.23;100.00;61223.13;4967347;28;20445;-68
2022/03/11 06:28:08;;;;;;;42.17;14.93;;;;;;;-148.23;100.00;61223.13;4967470;28;20041;-68
2022/03/11 06:30:34;;;;;;;49.00;18.00;;;;;;;-148.23;100.00;61223.13;4961155;28;20040;-67
2022/03/11 06:32:59;;;;;;;32.58;13.35;;;;;;;-148.23;100.00;61223.13;4980161;28;20035;-66
2022/03/11 06:35:25;;;;;;;38.65;15.32;;;;;;;-148.23;100.00;61223.13;4964838;28;20022;-67
2022/03/11 06:37:50;;;;;;;32.35;14.50;;;;;;;-148.23;100.00;61223.13;4965057;28;20120;-67
2022/03/11 06:40:16;;;;;;;32.72;13.27;;;;;;;-148.23;100.00;61223.13;4962108;28;20035;-68
2022/03/11 06:42:43;;;;;;;35.17;14.27;;;;;;;-148.23;100.00;61223.13;4977855;28;20026;-67
2022/03/11 06:45:10;;;;;;;41.47;14.77;;;;;;;-148.23;100.00;61223.13;4951084;28;20041;-67
2022/03/11 06:47:35;;;;;;;32.15;14.20;;;;;;;-148.23;100.00;61223.13;4961244;28;20389;-67
2022/03/11 06:50:01;;;;;;;32.05;12.57;;;;;;;-148.23;100.00;61223.13;4965346;28;20026;-66
2022/03/11 06:52:27;;;;;;;39.15;15.32;;;;;;;-148.23;100.00;61223.13;4966041;28;20054;-66
2022/03/11 06:54:52;;;;;;;23.73;11.48;;;;;;;-148.23;100.00;61223.13;4979940;28;20038;-67
2022/03/11 06:57:17;;;;;;;39.63;16.13;;;;;;;-148.23;100.00;61223.13;4965255;28;20096;-66
2022/03/11 06:59:43;;;;;;;35.92;14.23;;;;;;;-148.23;100.00;61223.13;4957928;28;20136;-67
2022/03/11 07:02:09;;;;;;;29.25;11.27;;;;;;;-148.23;100.00;61223.13;4972188;28;20062;-67
2022/03/11 07:04:34;;;;;;;36.80;17.70;;;;;;;-148.23;100.00;61223.13;4960340;28;20118;-67
2022/03/11 07:06:59;;;;;;;38.38;13.57;;;;;;;-148.23;100.00;61223.13;4960576;28;20077;-66
2022/03/11 07:09:25;;;;;;;39.08;17.20;;;;;;;-148.23;100.00;61223.13;4961158;28;20031;-67
2022/03/11 07:11:51;;;;;;;37.00;15.63;;;;;;;-148.23;100.00;61223.13;4962255;28;20081;-66
2022/03/11 07:14:16;;;;;;;39.88;15.93;;;;;;;-148.23;100.00;61223.13;4959687;28;20485;-66
2022/03/11 07:16:41;;;;;;;31.67;12.10;;;;;;;-148.23;100.00;61223.13;4959512;28;20042;-66
2022/03/11 07:19:08;;;;;;;35.80;15.65;;;;;;;-148.23;100.00;61223.13;4961378;28;20589;-67
2022/03/11 07:21:33;;;;;;;35.97;14.65;;;;;;;-148.23;100.00;61223.13;4959077;28;20031;-67
2022/03/11 07:23:58;;;;;;;35.08;16.20;;;;;;;-148.23;100.00;61223.13;4959875;28;20085;-67
2022/03/11 07:26:24;;;;;;;37.97;15.68;;;;;;;-148.23;100.00;61223.13;4961280;28;20066;-67
2022/03/11 07:28:49;;;;;;;29.63;11.50;;;;;;;-148.23;100.00;61223.13;4959933;28;20069;-67
2022/03/11 07:31:14;;;;;;;47.78;20.25;;;;;;;-148.23;100.00;61223.13;4948690;28;20477;-67
2022/03/11 07:33:39;;;;;;;40.60;15.20;;;;;;;-148.23;100.00;61223.13;4954729;28;20035;-68
2022/03/11 07:36:05;;;;;;;47.28;19.27;;;;;;;-148.23;100.00;61223.13;4952875;28;20035;-68
2022/03/11 07:38:33;;;;;;;32.08;14.23;;;;;;;-148.23;100.00;61223.13;4957233;28;20157;-68
2022/03/11 07:40:59;;;;;;;39.33;16.77;;;;;;;-148.23;100.00;61223.13;4955750;28;20117;-70
2022/03/11 07:43:25;;;;;;;45.00;18.33;;;;;;;-148.23;100.00;61223.13;4966246;28;20638;-67
2022/03/11 07:45:51;;;;;;;45.75;18.10;;;;;;;-148.23;100.00;61223.13;4955296;28;20033;-67
2022/03/11 07:48:16;;;;;;;35.10;17.08;;;;;;;-148.23;100.00;61223.13;4957501;28;20345;-67
2022/03/11 07:50:41;;;;;;;44.10;21.67;;;;;;;-148.23;100.00;61223.13;4972747;28;20034;-67
2022/03/11 07:53:07;;;;;;;41.38;22.02;;;;;;;-148.23;100.00;61223.13;4958173;28;20304;-67
2022/03/11 07:55:32;;;;;;;44.75;21.52;;;;;;;-148.23;100.00;61223.13;4961617;28;20128;-67
2022/03/11 07:57:57;;;;;;;40.53;19.40;;;;;;;-148.23;100.00;61223.13;4944414;28;20362;-67
2022/03/11 08:00:23;;;;;;;37.55;17.15;;;;;;;-148.23;100.00;61223.13;4956322;28;20058;-67
2022/03/11 08:02:49;;;;;;;43.42;20.88;;;;;;;-148.23;100.00;61223.13;4954239;28;20031;-67
2022/03/11 08:05:14;;;;;;;42.58;20.17;;;;;;;-148.23;100.00;61223.13;4958464;28;20458;-67
2022/03/11 08:07:47;;;;;;;42.42;18.50;;;;;;;-148.23;100.00;61223.13;4940418;28;20093;-67
2022/03/11 08:10:12;;;;;;;44.05;21.40;;;;;;;-148.23;100.00;61223.13;4972730;28;20067;-67
2022/03/11 08:12:38;;;;;;;43.40;18.05;;;;;;;-148.23;100.00;61223.13;4969979;28;20154;-67
2022/03/11 08:15:03;;;;;;;39.40;15.48;;;;;;;-148.23;100.00;61223.13;4954731;28;21071;-67
2022/03/11 08:17:29;;;;;;;41.83;19.60;;;;;;;-148.23;100.00;61223.13;4972669;28;20117;-67
2022/03/11 08:19:54;;;;;;;55.80;24.30;;;;;;;-148.23;100.00;61223.13;4971709;28;20035;-67
2022/03/11 08:22:19;;;;;;;41.08;16.65;;;;;;;-148.23;100.00;61223.13;4957376;28;20057;-68
2022/03/11 08:24:45;;;;;;;43.30;21.85;;;;;;;-148.23;100.00;61223.13;4972634;28;20019;-67
2022/03/11 08:27:11;;;;;;;37.45;16.40;;;;;;;-148.23;100.00;61223.13;4959735;28;20034;-67
2022/03/11 08:29:37;;;;;;;41.70;16.90;;;;;;;-148.23;100.00;61223.13;4958620;28;20034;-67
2022/03/11 08:32:03;;;;;;;40.90;19.02;;;;;;;-148.23;100.00;61223.13;4958470;28;20057;-67
2022/03/11 08:34:29;;;;;;;46.55;17.77;;;;;;;-148.23;100.00;61223.13;4960172;28;20030;-67
2022/03/11 08:36:54;;;;;;;53.67;17.40;;;;;;;-148.23;100.00;61223.13;4960663;28;20397;-67
2022/03/11 08:39:20;;;;;;;38.45;18.63;;;;;;;-148.23;100.00;61223.13;4961051;28;20039;-68
2022/03/11 08:41:46;;;;;;;39.80;16.88;;;;;;;-148.23;100.00;61223.13;4956855;28;20857;-67
2022/03/11 08:44:11;;;;;;;41.58;19.27;;;;;;;-148.23;100.00;61223.13;4959706;28;20039;-67
2022/03/11 08:46:38;;;;;;;52.95;23.70;;;;;;;-148.23;100.00;61223.13;4959627;28;20380;-67
2022/03/11 08:49:03;;;;;;;42.65;20.38;;;;;;;-148.23;100.00;61223.13;4957276;28;20034;-67
2022/03/11 08:51:29;;;;;;;40.30;15.68;;;;;;;-148.23;100.00;61223.13;4958402;28;20062;-67
2022/03/11 08:53:54;;;;;;;46.50;19.67;;;;;;;-148.23;100.00;61223.13;4960104;28;20071;-67
2022/03/11 08:56:22;;;;;;;49.95;20.13;;;;;;;-148.23;100.00;61223.13;4960557;28;20031;-67
2022/03/11 08:58:48;;;;;;;47.53;25.00;;;;;;;-148.23;100.00;61223.13;4961169;28;20026;-68
2022/03/11 09:01:13;;;;;;;41.25;17.85;;;;;;;-148.23;100.00;61223.13;4955302;28;20057;-67
2022/03/11 09:03:39;;;;;;;48.15;24.08;;;;;;;-148.23;100.00;61223.13;4955726;28;20150;-67
2022/03/11 09:06:04;;;;;;;45.45;18.15;;;;;;;-148.23;100.00;61223.13;4976187;28;20031;-67
2022/03/11 09:08:29;;;;;;;45.22;18.85;;;;;;;-148.23;100.00;61223.13;4957243;28;20053;-67
2022/03/11 09:10:55;;;;;;;48.00;22.58;;;;;;;-148.23;100.00;61223.13;4957016;28;20457;-67
2022/03/11 09:13:20;;;;;;;52.05;26.58;;;;;;;-148.23;100.00;61223.13;4959953;28;20070;-67
2022/03/11 09:15:45;;;;;;;41.20;18.92;;;;;;;-148.23;100.00;61223.13;4966218;28;20035;-67
2022/03/11 09:18:11;;;;;;;53.85;23.30;;;;;;;-148.23;100.00;61223.13;4953455;28;20074;-67
2022/03/11 09:20:37;;;;;;;51.38;23.65;;;;;;;-148.23;100.00;61223.13;4955004;28;20508;-68
2022/03/11 09:23:03;;;;;;;46.58;23.63;;;;;;;-148.23;100.00;61223.13;4952776;28;20058;-67
2022/03/11 09:25:29;;;;;;;48.33;23.50;;;;;;;-148.23;100.00;61223.13;4956992;28;20022;-67
2022/03/11 09:27:54;;;;;;;50.47;19.88;;;;;;;-148.23;100.00;61223.13;4961194;28;20038;-67
2022/03/11 09:30:19;;;;;;;56.38;26.92;;;;;;;-148.23;100.00;61223.13;4959092;28;20149;-67
2022/03/11 09:32:45;;;;;;;50.75;23.77;;;;;;;-148.23;100.00;61223.13;4959042;28;20076;-67
2022/03/11 09:35:11;;;;;;;48.40;21.58;;;;;;;-148.23;100.00;61223.13;4955126;28;20038;-67
2022/03/11 09:37:36;;;;;;;49.95;22.70;;;;;;;-148.23;100.00;61223.13;4952597;28;20038;-67
2022/03/11 09:40:02;;;;;;;51.40;24.90;;;;;;;-148.23;100.00;61223.13;4957105;28;20026;-67
2022/03/11 09:42:28;;;;;;;55.05;24.48;;;;;;;-148.23;100.00;61223.13;4941295;28;20504;-67
2022/03/11 09:44:54;;;;;;;53.45;22.02;;;;;;;-148.23;100.00;61223.13;4957037;28;20030;-68
2022/03/11 09:47:20;;;;;;;50.35;20.05;;;;;;;-148.23;100.00;61223.13;4959569;28;20038;-67
2022/03/11 09:49:47;;;;;;;48.08;23.25;;;;;;;-148.23;100.00;61223.13;4954661;28;20109;-68
2022/03/11 09:52:12;;;;;;;65.97;24.17;;;;;;;-148.23;100.00;61223.13;4970288;28;20034;-67
2022/03/11 09:54:38;;;;;;;46.42;18.45;;;;;;;-148.23;100.00;61223.13;4956069;28;20118;-67
2022/03/11 09:57:03;;;;;;;50.53;23.80;;;;;;;-148.23;100.00;61223.13;4952391;28;20121;-67
2022/03/11 09:59:29;;;;;;;39.63;17.33;;;;;;;-148.23;100.00;61223.13;4955915;28;20955;-67
2022/03/11 10:01:54;;;;;;;45.45;19.00;;;;;;;-148.23;100.00;61223.13;4949313;28;20069;-67
2022/03/11 10:04:20;;;;;;;51.35;27.23;;;;;;;-148.23;100.00;61223.13;4956774;28;20042;-67
2022/03/11 10:06:46;;;;;;;50.65;21.92;;;;;;;-148.23;100.00;61223.13;4956154;28;20057;-68
2022/03/11 10:09:18;;;;;;;45.72;18.35;;;;;;;-148.23;100.00;61223.13;4940487;28;20077;-67
2022/03/11 10:11:46;;;;;;;47.13;18.83;;;;;;;-148.23;100.00;61223.13;4972889;28;20314;-67
2022/03/11 10:14:12;;;;;;;54.47;26.42;;;;;;;-148.23;100.00;61223.13;4958969;28;20039;-68
2022/03/11 10:16:37;;;;;;;61.85;24.70;;;;;;;-148.23;100.00;61223.13;4955822;28;20098;-68
2022/03/11 10:19:07;;;;;;;49.75;22.23;;;;;;;-148.23;100.00;61223.13;4951934;28;20121;-67
2022/03/11 10:21:36;;;;;;;51.60;17.92;;;;;;;-148.23;100.00;61223.13;4971360;28;20031;-67
2022/03/11 10:24:05;;;;;;;53.10;22.83;;;;;;;-148.23;100.00;61223.13;4972885;28;20385;-67
2022/03/11 10:26:37;;;;;;;59.42;24.48;;;;;;;-148.23;100.00;61223.13;4960897;28;20085;-67
2022/03/11 10:29:04;;;;;;;47.33;24.20;;;;;;;-148.23;100.00;61223.13;4957292;28;20031;-67
2022/03/11 10:31:42;;;;;;;45.70;17.75;;;;;;;-148.23;100.00;61223.13;4953776;28;20027;-67
2022/03/11 10:34:17;;;;;;;56.90;27.30;;;;;;;-148.23;100.00;61223.13;4957010;28;20034;-68
2022/03/11 10:37:02;;;;;;;51.10;21.75;;;;;;;-148.23;100.00;61223.13;4957893;28;20057;-67
2022/03/11 10:39:42;;;;;;;55.25;24.30;;;;;;;-148.23;100.00;61223.13;4956614;28;20026;-68
2022/03/11 10:42:16;;;;;;;56.55;25.95;;;;;;;-148.23;100.00;61223.13;4962853;28;20022;-69
2022/03/11 10:45:03;;;;;;;43.55;19.83;;;;;;;-148.23;100.00;61223.13;4961306;28;20062;-68
2022/03/11 10:47:36;;;;;;;55.50;29.15;;;;;;;-148.23;100.00;61223.13;4960036;28;20031;-67
2022/03/11 10:50:06;;;;;;;55.40;20.90;;;;;;;-148.23;100.00;61223.13;4956334;28;20022;-67